sensor_id;sensor_type;location;lat;lon;timestamp;pressure;altitude;pressure_sealevel;temperature
69590;BMP180;56792;50.644;17.984;2023-05-10T00:01:34;99846.40;;;8.10
69590;BMP180;56792;50.644;17.984;2023-05-10T00:04:02;99846.20;;;8.10
69590;BMP180;56792;50.644;17.984;2023-05-10T00:06:31;99836.80;;;8.10
69590;BMP180;56792;50.644;17.984;2023-05-10T00:08:59;99836.20;;;8.00
69590;BMP180;56792;50.644;17.984;2023-05-10T00:11:28;99832.80;;;8.00
69590;BMP180;56792;50.644;17.984;2023-05-10T00:13:56;99834.20;;;8.00
69590;BMP180;56792;50.644;17.984;2023-05-10T00:16:24;99838.60;;;8.00
69590;BMP180;56792;50.644;17.984;2023-05-10T00:18:52;99832.60;;;7.90
69590;BMP180;56792;50.644;17.984;2023-05-10T00:21:21;99838.60;;;7.90
69590;BMP180;56792;50.644;17.984;2023-05-10T00:23:49;99836.40;;;7.90
69590;BMP180;56792;50.644;17.984;2023-05-10T00:26:17;99840.40;;;7.90
69590;BMP180;56792;50.644;17.984;2023-05-10T00:28:46;99839.00;;;7.90
69590;BMP180;56792;50.644;17.984;2023-05-10T00:31:14;99837.40;;;7.88
69590;BMP180;56792;50.644;17.984;2023-05-10T00:33:43;99836.20;;;7.80
69590;BMP180;56792;50.644;17.984;2023-05-10T00:36:11;99836.20;;;7.80
69590;BMP180;56792;50.644;17.984;2023-05-10T00:38:39;99833.60;;;7.80
69590;BMP180;56792;50.644;17.984;2023-05-10T00:41:08;99834.80;;;7.72
69590;BMP180;56792;50.644;17.984;2023-05-10T00:43:37;99829.20;;;7.70
69590;BMP180;56792;50.644;17.984;2023-05-10T00:46:05;99826.00;;;7.70
69590;BMP180;56792;50.644;17.984;2023-05-10T00:48:34;99825.80;;;7.70
69590;BMP180;56792;50.644;17.984;2023-05-10T00:51:03;99819.00;;;7.66
69590;BMP180;56792;50.644;17.984;2023-05-10T00:53:33;99814.20;;;7.60
69590;BMP180;56792;50.644;17.984;2023-05-10T00:56:02;99819.60;;;7.60
69590;BMP180;56792;50.644;17.984;2023-05-10T00:58:31;99813.40;;;7.60
69590;BMP180;56792;50.644;17.984;2023-05-10T01:01:01;99808.20;;;7.50
69590;BMP180;56792;50.644;17.984;2023-05-10T01:03:29;99807.20;;;7.50
69590;BMP180;56792;50.644;17.984;2023-05-10T01:05:58;99812.20;;;7.50
69590;BMP180;56792;50.644;17.984;2023-05-10T01:08:26;99809.40;;;7.50
69590;BMP180;56792;50.644;17.984;2023-05-10T01:10:55;99804.80;;;7.48
69590;BMP180;56792;50.644;17.984;2023-05-10T01:13:34;99805.00;;;7.46
69590;BMP180;56792;50.644;17.984;2023-05-10T01:16:06;99802.20;;;7.40
69590;BMP180;56792;50.644;17.984;2023-05-10T01:18:39;99795.60;;;7.40
69590;BMP180;56792;50.644;17.984;2023-05-10T01:21:22;99799.40;;;7.32
69590;BMP180;56792;50.644;17.984;2023-05-10T01:24:17;99799.00;;;7.30
69590;BMP180;56792;50.644;17.984;2023-05-10T01:27:29;99802.40;;;7.30
69590;BMP180;56792;50.644;17.984;2023-05-10T01:33:16;99794.20;;;7.24
69590;BMP180;56792;50.644;17.984;2023-05-10T01:35:54;99789.80;;;7.22
69590;BMP180;56792;50.644;17.984;2023-05-10T01:38:32;99794.20;;;7.20
69590;BMP180;56792;50.644;17.984;2023-05-10T01:41:13;99791.40;;;7.20
69590;BMP180;56792;50.644;17.984;2023-05-10T01:43:53;99793.80;;;7.20
69590;BMP180;56792;50.644;17.984;2023-05-10T01:46:33;99797.60;;;7.20
69590;BMP180;56792;50.644;17.984;2023-05-10T01:49:08;99790.80;;;7.20
69590;BMP180;56792;50.644;17.984;2023-05-10T01:51:46;99786.60;;;7.18
69590;BMP180;56792;50.644;17.984;2023-05-10T01:54:19;99787.20;;;7.10
69590;BMP180;56792;50.644;17.984;2023-05-10T01:56:52;99787.80;;;7.10
69590;BMP180;56792;50.644;17.984;2023-05-10T01:59:26;99789.40;;;7.10
69590;BMP180;56792;50.644;17.984;2023-05-10T02:01:58;99789.80;;;7.02
69590;BMP180;56792;50.644;17.984;2023-05-10T02:04:28;99791.40;;;7.00
69590;BMP180;56792;50.644;17.984;2023-05-10T02:06:58;99786.20;;;7.00
69590;BMP180;56792;50.644;17.984;2023-05-10T02:09:28;99788.80;;;7.00
69590;BMP180;56792;50.644;17.984;2023-05-10T02:11:59;99785.80;;;7.00
69590;BMP180;56792;50.644;17.984;2023-05-10T02:14:29;99791.40;;;7.00
69590;BMP180;56792;50.644;17.984;2023-05-10T02:17:00;99787.20;;;7.00
69590;BMP180;56792;50.644;17.984;2023-05-10T02:19:30;99785.40;;;6.98
69590;BMP180;56792;50.644;17.984;2023-05-10T02:22:01;99782.40;;;6.90
69590;BMP180;56792;50.644;17.984;2023-05-10T02:24:32;99778.00;;;6.90
69590;BMP180;56792;50.644;17.984;2023-05-10T02:27:03;99778.00;;;6.90
69590;BMP180;56792;50.644;17.984;2023-05-10T02:29:33;99777.60;;;6.90
69590;BMP180;56792;50.644;17.984;2023-05-10T02:32:03;99776.60;;;6.86
69590;BMP180;56792;50.644;17.984;2023-05-10T02:34:33;99778.40;;;6.80
69590;BMP180;56792;50.644;17.984;2023-05-10T02:37:02;99775.00;;;6.80
69590;BMP180;56792;50.644;17.984;2023-05-10T02:39:32;99775.40;;;6.80
69590;BMP180;56792;50.644;17.984;2023-05-10T02:42:02;99776.20;;;6.70
69590;BMP180;56792;50.644;17.984;2023-05-10T02:44:30;99772.20;;;6.70
69590;BMP180;56792;50.644;17.984;2023-05-10T02:47:00;99773.80;;;6.70
69590;BMP180;56792;50.644;17.984;2023-05-10T02:49:29;99775.00;;;6.70
69590;BMP180;56792;50.644;17.984;2023-05-10T02:52:02;99771.80;;;6.70
69590;BMP180;56792;50.644;17.984;2023-05-10T02:54:41;99773.20;;;6.60
69590;BMP180;56792;50.644;17.984;2023-05-10T02:57:16;99768.60;;;6.60
69590;BMP180;56792;50.644;17.984;2023-05-10T02:59:46;99771.80;;;6.60
69590;BMP180;56792;50.644;17.984;2023-05-10T03:02:15;99770.40;;;6.60
69590;BMP180;56792;50.644;17.984;2023-05-10T03:04:43;99773.20;;;6.60
69590;BMP180;56792;50.644;17.984;2023-05-10T03:07:11;99776.20;;;6.60
69590;BMP180;56792;50.644;17.984;2023-05-10T03:09:40;99774.80;;;6.54
69590;BMP180;56792;50.644;17.984;2023-05-10T03:12:31;99777.20;;;6.50
69590;BMP180;56792;50.644;17.984;2023-05-10T03:15:11;99774.40;;;6.50
69590;BMP180;56792;50.644;17.984;2023-05-10T03:17:50;99772.20;;;6.50
69590;BMP180;56792;50.644;17.984;2023-05-10T03:20:28;99769.40;;;6.50
69590;BMP180;56792;50.644;17.984;2023-05-10T03:23:05;99764.60;;;6.50
69590;BMP180;56792;50.644;17.984;2023-05-10T03:25:35;99764.60;;;6.50
69590;BMP180;56792;50.644;17.984;2023-05-10T03:28:06;99763.20;;;6.50
69590;BMP180;56792;50.644;17.984;2023-05-10T03:30:35;99766.80;;;6.50
69590;BMP180;56792;50.644;17.984;2023-05-10T03:33:07;99765.00;;;6.50
69590;BMP180;56792;50.644;17.984;2023-05-10T03:35:36;99766.60;;;6.50
69590;BMP180;56792;50.644;17.984;2023-05-10T03:38:05;99766.00;;;6.50
69590;BMP180;56792;50.644;17.984;2023-05-10T03:40:33;99757.40;;;6.50
69590;BMP180;56792;50.644;17.984;2023-05-10T03:43:01;99760.00;;;6.50
69590;BMP180;56792;50.644;17.984;2023-05-10T03:45:30;99757.60;;;6.52
69590;BMP180;56792;50.644;17.984;2023-05-10T03:47:59;99760.40;;;6.60
69590;BMP180;56792;50.644;17.984;2023-05-10T03:50:27;99759.20;;;6.60
69590;BMP180;56792;50.644;17.984;2023-05-10T03:52:56;99761.40;;;6.60
69590;BMP180;56792;50.644;17.984;2023-05-10T03:55:24;99760.20;;;6.60
69590;BMP180;56792;50.644;17.984;2023-05-10T03:57:53;99760.00;;;6.60
69590;BMP180;56792;50.644;17.984;2023-05-10T04:00:22;99759.40;;;6.70
69590;BMP180;56792;50.644;17.984;2023-05-10T04:02:52;99760.00;;;6.70
69590;BMP180;56792;50.644;17.984;2023-05-10T04:05:21;99758.60;;;6.70
69590;BMP180;56792;50.644;17.984;2023-05-10T04:07:49;99763.60;;;6.74
69590;BMP180;56792;50.644;17.984;2023-05-10T04:10:18;99754.60;;;6.80
69590;BMP180;56792;50.644;17.984;2023-05-10T04:12:47;99759.20;;;6.80
69590;BMP180;56792;50.644;17.984;2023-05-10T04:15:15;99756.00;;;6.88
69590;BMP180;56792;50.644;17.984;2023-05-10T04:17:43;99759.00;;;6.90
69590;BMP180;56792;50.644;17.984;2023-05-10T04:20:13;99757.40;;;6.90
69590;BMP180;56792;50.644;17.984;2023-05-10T04:22:42;99754.80;;;7.00
69590;BMP180;56792;50.644;17.984;2023-05-10T04:25:11;99755.20;;;7.00
69590;BMP180;56792;50.644;17.984;2023-05-10T04:27:39;99761.40;;;7.10
69590;BMP180;56792;50.644;17.984;2023-05-10T04:30:10;99762.20;;;7.14
69590;BMP180;56792;50.644;17.984;2023-05-10T04:32:38;99758.20;;;7.20
69590;BMP180;56792;50.644;17.984;2023-05-10T04:35:08;99760.00;;;7.28
69590;BMP180;56792;50.644;17.984;2023-05-10T04:37:37;99760.80;;;7.30
69590;BMP180;56792;50.644;17.984;2023-05-10T04:40:09;99759.80;;;7.40
69590;BMP180;56792;50.644;17.984;2023-05-10T04:42:40;99757.80;;;7.50
69590;BMP180;56792;50.644;17.984;2023-05-10T04:45:10;99753.60;;;7.60
69590;BMP180;56792;50.644;17.984;2023-05-10T04:47:38;99753.80;;;7.60
69590;BMP180;56792;50.644;17.984;2023-05-10T04:50:09;99756.60;;;7.70
69590;BMP180;56792;50.644;17.984;2023-05-10T04:52:37;99755.20;;;7.80
69590;BMP180;56792;50.644;17.984;2023-05-10T04:55:07;99754.80;;;7.86
69590;BMP180;56792;50.644;17.984;2023-05-10T04:57:37;99755.40;;;7.90
69590;BMP180;56792;50.644;17.984;2023-05-10T05:00:08;99753.40;;;8.00
69590;BMP180;56792;50.644;17.984;2023-05-10T05:02:36;99760.20;;;8.10
69590;BMP180;56792;50.644;17.984;2023-05-10T05:05:07;99754.60;;;8.20
69590;BMP180;56792;50.644;17.984;2023-05-10T05:07:35;99750.60;;;8.30
69590;BMP180;56792;50.644;17.984;2023-05-10T05:10:05;99751.40;;;8.38
69590;BMP180;56792;50.644;17.984;2023-05-10T05:12:33;99755.40;;;8.40
69590;BMP180;56792;50.644;17.984;2023-05-10T05:15:02;99755.80;;;8.50
69590;BMP180;56792;50.644;17.984;2023-05-10T05:17:32;99751.20;;;8.64
69590;BMP180;56792;50.644;17.984;2023-05-10T05:20:00;99748.80;;;8.70
69590;BMP180;56792;50.644;17.984;2023-05-10T05:22:28;99749.80;;;8.80
69590;BMP180;56792;50.644;17.984;2023-05-10T05:24:57;99754.00;;;8.90
69590;BMP180;56792;50.644;17.984;2023-05-10T05:27:26;99751.00;;;9.00
69590;BMP180;56792;50.644;17.984;2023-05-10T05:29:56;99749.60;;;9.10
69590;BMP180;56792;50.644;17.984;2023-05-10T05:32:24;99750.80;;;9.20
69590;BMP180;56792;50.644;17.984;2023-05-10T05:34:53;99754.60;;;9.30
69590;BMP180;56792;50.644;17.984;2023-05-10T05:37:22;99753.00;;;9.40
69590;BMP180;56792;50.644;17.984;2023-05-10T05:39:50;99752.00;;;9.50
69590;BMP180;56792;50.644;17.984;2023-05-10T05:42:19;99749.20;;;9.60
69590;BMP180;56792;50.644;17.984;2023-05-10T05:44:47;99748.20;;;9.78
69590;BMP180;56792;50.644;17.984;2023-05-10T05:47:15;99753.00;;;9.90
69590;BMP180;56792;50.644;17.984;2023-05-10T05:49:43;99752.80;;;10.00
69590;BMP180;56792;50.644;17.984;2023-05-10T05:52:13;99753.00;;;10.20
69590;BMP180;56792;50.644;17.984;2023-05-10T05:54:41;99757.60;;;10.30
69590;BMP180;56792;50.644;17.984;2023-05-10T05:57:09;99751.20;;;10.50
69590;BMP180;56792;50.644;17.984;2023-05-10T05:59:38;99750.00;;;10.64
69590;BMP180;56792;50.644;17.984;2023-05-10T06:02:09;99751.20;;;10.80
69590;BMP180;56792;50.644;17.984;2023-05-10T06:04:38;99745.40;;;10.90
69590;BMP180;56792;50.644;17.984;2023-05-10T06:07:06;99754.40;;;11.10
69590;BMP180;56792;50.644;17.984;2023-05-10T06:09:34;99749.40;;;11.30
69590;BMP180;56792;50.644;17.984;2023-05-10T06:12:03;99751.80;;;11.50
69590;BMP180;56792;50.644;17.984;2023-05-10T06:14:31;99747.20;;;11.70
69590;BMP180;56792;50.644;17.984;2023-05-10T06:16:59;99758.20;;;11.90
69590;BMP180;56792;50.644;17.984;2023-05-10T06:19:27;99751.40;;;12.10
69590;BMP180;56792;50.644;17.984;2023-05-10T06:21:56;99748.20;;;12.30
69590;BMP180;56792;50.644;17.984;2023-05-10T06:24:24;99752.40;;;12.58
69590;BMP180;56792;50.644;17.984;2023-05-10T06:26:53;99750.40;;;12.74
69590;BMP180;56792;50.644;17.984;2023-05-10T06:29:21;99754.80;;;12.98
69590;BMP180;56792;50.644;17.984;2023-05-10T06:31:49;99759.00;;;13.10
69590;BMP180;56792;50.644;17.984;2023-05-10T06:34:18;99753.80;;;13.30
69590;BMP180;56792;50.644;17.984;2023-05-10T06:36:47;99759.80;;;13.60
69590;BMP180;56792;50.644;17.984;2023-05-10T06:39:15;99755.40;;;13.80
69590;BMP180;56792;50.644;17.984;2023-05-10T06:41:43;99756.80;;;14.08
69590;BMP180;56792;50.644;17.984;2023-05-10T06:44:12;99757.60;;;14.30
69590;BMP180;56792;50.644;17.984;2023-05-10T06:46:40;99752.00;;;14.58
69590;BMP180;56792;50.644;17.984;2023-05-10T06:49:09;99757.00;;;14.80
69590;BMP180;56792;50.644;17.984;2023-05-10T06:51:37;99759.60;;;15.06
69590;BMP180;56792;50.644;17.984;2023-05-10T06:54:06;99761.80;;;15.24
69590;BMP180;56792;50.644;17.984;2023-05-10T06:56:34;99762.60;;;15.42
69590;BMP180;56792;50.644;17.984;2023-05-10T06:59:02;99760.80;;;15.56
69590;BMP180;56792;50.644;17.984;2023-05-10T07:01:31;99758.60;;;15.78
69590;BMP180;56792;50.644;17.984;2023-05-10T07:03:59;99761.20;;;16.00
69590;BMP180;56792;50.644;17.984;2023-05-10T07:06:27;99758.00;;;16.20
69590;BMP180;56792;50.644;17.984;2023-05-10T07:08:56;99756.40;;;16.30
69590;BMP180;56792;50.644;17.984;2023-05-10T07:11:24;99756.20;;;16.56
69590;BMP180;56792;50.644;17.984;2023-05-10T07:13:53;99757.00;;;16.70
69590;BMP180;56792;50.644;17.984;2023-05-10T07:16:21;99747.20;;;16.70
69590;BMP180;56792;50.644;17.984;2023-05-10T07:18:49;99749.80;;;16.80
69590;BMP180;56792;50.644;17.984;2023-05-10T07:21:18;99749.20;;;17.00
69590;BMP180;56792;50.644;17.984;2023-05-10T07:23:46;99751.40;;;17.20
69590;BMP180;56792;50.644;17.984;2023-05-10T07:26:14;99753.40;;;17.32
69590;BMP180;56792;50.644;17.984;2023-05-10T07:28:43;99750.00;;;17.40
69590;BMP180;56792;50.644;17.984;2023-05-10T07:31:11;99749.80;;;17.40
69590;BMP180;56792;50.644;17.984;2023-05-10T07:33:39;99745.80;;;17.50
69590;BMP180;56792;50.644;17.984;2023-05-10T07:36:08;99748.20;;;17.70
69590;BMP180;56792;50.644;17.984;2023-05-10T07:38:36;99744.20;;;17.80
69590;BMP180;56792;50.644;17.984;2023-05-10T07:41:05;99742.20;;;17.90
69590;BMP180;56792;50.644;17.984;2023-05-10T07:43:33;99742.20;;;18.00
69590;BMP180;56792;50.644;17.984;2023-05-10T07:46:01;99745.80;;;18.00
69590;BMP180;56792;50.644;17.984;2023-05-10T07:48:29;99746.80;;;18.10
69590;BMP180;56792;50.644;17.984;2023-05-10T07:50:57;99747.20;;;18.30
69590;BMP180;56792;50.644;17.984;2023-05-10T07:53:27;99752.00;;;18.40
69590;BMP180;56792;50.644;17.984;2023-05-10T07:55:58;99750.60;;;18.46
69590;BMP180;56792;50.644;17.984;2023-05-10T07:58:27;99745.00;;;18.50
69590;BMP180;56792;50.644;17.984;2023-05-10T08:00:55;99738.00;;;18.60
69590;BMP180;56792;50.644;17.984;2023-05-10T08:03:24;99740.20;;;18.78
69590;BMP180;56792;50.644;17.984;2023-05-10T08:05:52;99736.80;;;18.80
69590;BMP180;56792;50.644;17.984;2023-05-10T08:08:20;99740.00;;;19.00
69590;BMP180;56792;50.644;17.984;2023-05-10T08:10:50;99733.60;;;19.10
69590;BMP180;56792;50.644;17.984;2023-05-10T08:13:18;99731.60;;;19.18
69590;BMP180;56792;50.644;17.984;2023-05-10T08:15:46;99731.00;;;19.30
69590;BMP180;56792;50.644;17.984;2023-05-10T08:18:15;99733.60;;;19.30
69590;BMP180;56792;50.644;17.984;2023-05-10T08:20:43;99727.40;;;19.30
69590;BMP180;56792;50.644;17.984;2023-05-10T08:23:12;99731.20;;;19.40
69590;BMP180;56792;50.644;17.984;2023-05-10T08:25:40;99732.00;;;19.60
69590;BMP180;56792;50.644;17.984;2023-05-10T08:28:09;99731.00;;;19.70
69590;BMP180;56792;50.644;17.984;2023-05-10T08:30:37;99732.40;;;19.90
69590;BMP180;56792;50.644;17.984;2023-05-10T08:33:05;99726.80;;;20.10
69590;BMP180;56792;50.644;17.984;2023-05-10T08:35:33;99729.20;;;20.20
69590;BMP180;56792;50.644;17.984;2023-05-10T08:38:02;99727.60;;;20.18
69590;BMP180;56792;50.644;17.984;2023-05-10T08:40:30;99730.00;;;20.26
69590;BMP180;56792;50.644;17.984;2023-05-10T08:43:05;99730.40;;;20.44
69590;BMP180;56792;50.644;17.984;2023-05-10T08:45:38;99736.00;;;20.70
69590;BMP180;56792;50.644;17.984;2023-05-10T08:48:10;99734.20;;;20.60
69590;BMP180;56792;50.644;17.984;2023-05-10T08:50:40;99737.80;;;20.60
69590;BMP180;56792;50.644;17.984;2023-05-10T08:53:13;99741.40;;;20.90
69590;BMP180;56792;50.644;17.984;2023-05-10T08:55:42;99737.00;;;21.00
69590;BMP180;56792;50.644;17.984;2023-05-10T08:58:11;99742.80;;;21.30
69590;BMP180;56792;50.644;17.984;2023-05-10T09:00:39;99741.60;;;21.30
69590;BMP180;56792;50.644;17.984;2023-05-10T09:03:07;99736.00;;;21.40
69590;BMP180;56792;50.644;17.984;2023-05-10T09:05:37;99738.40;;;21.40
69590;BMP180;56792;50.644;17.984;2023-05-10T09:08:08;99739.00;;;21.50
69590;BMP180;56792;50.644;17.984;2023-05-10T09:10:37;99740.60;;;21.68
69590;BMP180;56792;50.644;17.984;2023-05-10T09:13:07;99741.20;;;21.78
69590;BMP180;56792;50.644;17.984;2023-05-10T09:15:36;99743.60;;;22.10
69590;BMP180;56792;50.644;17.984;2023-05-10T09:18:05;99741.20;;;22.10
69590;BMP180;56792;50.644;17.984;2023-05-10T09:20:33;99740.60;;;21.80
69590;BMP180;56792;50.644;17.984;2023-05-10T09:23:02;99739.80;;;22.08
69590;BMP180;56792;50.644;17.984;2023-05-10T09:25:30;99742.00;;;22.70
69590;BMP180;56792;50.644;17.984;2023-05-10T09:28:01;99742.20;;;23.00
69590;BMP180;56792;50.644;17.984;2023-05-10T09:30:30;99746.60;;;23.26
69590;BMP180;56792;50.644;17.984;2023-05-10T09:32:59;99748.20;;;23.40
69590;BMP180;56792;50.644;17.984;2023-05-10T09:35:31;99749.60;;;23.48
69590;BMP180;56792;50.644;17.984;2023-05-10T09:38:04;99749.40;;;23.66
69590;BMP180;56792;50.644;17.984;2023-05-10T09:40:33;99753.00;;;23.44
69590;BMP180;56792;50.644;17.984;2023-05-10T09:43:05;99748.40;;;23.30
69590;BMP180;56792;50.644;17.984;2023-05-10T09:45:36;99752.40;;;23.44
69590;BMP180;56792;50.644;17.984;2023-05-10T09:48:05;99751.60;;;23.40
69590;BMP180;56792;50.644;17.984;2023-05-10T09:50:33;99745.60;;;23.60
69590;BMP180;56792;50.644;17.984;2023-05-10T09:53:04;99753.20;;;23.62
69590;BMP180;56792;50.644;17.984;2023-05-10T09:55:42;99747.60;;;23.60
69590;BMP180;56792;50.644;17.984;2023-05-10T09:58:13;99754.20;;;23.98
69590;BMP180;56792;50.644;17.984;2023-05-10T10:00:43;99745.80;;;24.20
69590;BMP180;56792;50.644;17.984;2023-05-10T10:03:16;99750.80;;;24.58
69590;BMP180;56792;50.644;17.984;2023-05-10T10:05:46;99747.20;;;24.48
69590;BMP180;56792;50.644;17.984;2023-05-10T10:08:15;99748.40;;;24.38
69590;BMP180;56792;50.644;17.984;2023-05-10T10:10:44;99738.00;;;24.20
69590;BMP180;56792;50.644;17.984;2023-05-10T10:13:14;99743.00;;;24.10
69590;BMP180;56792;50.644;17.984;2023-05-10T10:15:43;99734.60;;;24.70
69590;BMP180;56792;50.644;17.984;2023-05-10T10:18:14;99743.20;;;25.32
69590;BMP180;56792;50.644;17.984;2023-05-10T10:20:43;99735.00;;;25.28
69590;BMP180;56792;50.644;17.984;2023-05-10T10:23:11;99729.60;;;25.74
69590;BMP180;56792;50.644;17.984;2023-05-10T10:25:40;99727.80;;;26.90
69590;BMP180;56792;50.644;17.984;2023-05-10T10:28:24;99728.40;;;28.48
69590;BMP180;56792;50.644;17.984;2023-05-10T10:30:56;99725.00;;;28.68
69590;BMP180;56792;50.644;17.984;2023-05-10T10:33:56;99721.40;;;29.50
69590;BMP180;56792;50.644;17.984;2023-05-10T10:36:27;99727.00;;;31.68
69590;BMP180;56792;50.644;17.984;2023-05-10T10:39:04;99726.60;;;32.78
69590;BMP180;56792;50.644;17.984;2023-05-10T10:41:38;99721.00;;;34.08
69590;BMP180;56792;50.644;17.984;2023-05-10T10:44:40;99729.80;;;35.46
69590;BMP180;56792;50.644;17.984;2023-05-10T10:47:23;99732.20;;;35.60
69590;BMP180;56792;50.644;17.984;2023-05-10T10:50:03;99730.20;;;33.92
69590;BMP180;56792;50.644;17.984;2023-05-10T10:52:36;99732.80;;;34.46
69590;BMP180;56792;50.644;17.984;2023-05-10T10:55:07;99732.20;;;32.78
69590;BMP180;56792;50.644;17.984;2023-05-10T10:57:47;99726.60;;;31.50
69590;BMP180;56792;50.644;17.984;2023-05-10T11:00:28;99732.40;;;32.90
69590;BMP180;56792;50.644;17.984;2023-05-10T11:03:00;99729.60;;;31.16
69590;BMP180;56792;50.644;17.984;2023-05-10T11:05:48;99729.00;;;29.86
69590;BMP180;56792;50.644;17.984;2023-05-10T11:08:26;99727.20;;;29.42
69590;BMP180;56792;50.644;17.984;2023-05-10T11:11:07;99720.20;;;29.76
69590;BMP180;56792;50.644;17.984;2023-05-10T11:13:39;99725.40;;;32.20
69590;BMP180;56792;50.644;17.984;2023-05-10T11:16:19;99723.40;;;32.12
69590;BMP180;56792;50.644;17.984;2023-05-10T11:19:01;99728.20;;;30.42
69590;BMP180;56792;50.644;17.984;2023-05-10T11:21:30;99719.40;;;29.10
69590;BMP180;56792;50.644;17.984;2023-05-10T11:24:00;99720.00;;;31.20
69590;BMP180;56792;50.644;17.984;2023-05-10T11:26:34;99725.20;;;32.46
69590;BMP180;56792;50.644;17.984;2023-05-10T11:29:03;99727.20;;;33.60
69590;BMP180;56792;50.644;17.984;2023-05-10T11:31:32;99719.40;;;31.64
69590;BMP180;56792;50.644;17.984;2023-05-10T11:34:01;99716.40;;;30.18
69590;BMP180;56792;50.644;17.984;2023-05-10T11:36:33;99721.40;;;28.92
69590;BMP180;56792;50.644;17.984;2023-05-10T11:39:03;99718.40;;;27.66
69590;BMP180;56792;50.644;17.984;2023-05-10T11:41:32;99717.60;;;26.78
69590;BMP180;56792;50.644;17.984;2023-05-10T11:44:00;99712.20;;;25.86
69590;BMP180;56792;50.644;17.984;2023-05-10T11:46:29;99716.20;;;25.28
69590;BMP180;56792;50.644;17.984;2023-05-10T11:49:01;99714.20;;;24.90
69590;BMP180;56792;50.644;17.984;2023-05-10T11:51:35;99711.40;;;24.48
69590;BMP180;56792;50.644;17.984;2023-05-10T11:54:08;99712.80;;;24.20
69590;BMP180;56792;50.644;17.984;2023-05-10T11:56:37;99710.40;;;23.90
69590;BMP180;56792;50.644;17.984;2023-05-10T11:59:06;99706.60;;;23.70
69590;BMP180;56792;50.644;17.984;2023-05-10T12:01:35;99708.60;;;23.78
69590;BMP180;56792;50.644;17.984;2023-05-10T12:04:04;99709.20;;;23.50
69590;BMP180;56792;50.644;17.984;2023-05-10T12:06:39;99707.80;;;23.30
69590;BMP180;56792;50.644;17.984;2023-05-10T12:09:08;99709.80;;;23.10
69590;BMP180;56792;50.644;17.984;2023-05-10T12:11:40;99709.40;;;23.96
69590;BMP180;56792;50.644;17.984;2023-05-10T12:14:09;99708.20;;;23.50
69590;BMP180;56792;50.644;17.984;2023-05-10T12:16:38;99703.60;;;23.42
69590;BMP180;56792;50.644;17.984;2023-05-10T12:19:06;99704.60;;;23.60
69590;BMP180;56792;50.644;17.984;2023-05-10T12:21:34;99707.80;;;23.28
69590;BMP180;56792;50.644;17.984;2023-05-10T12:24:04;99702.80;;;23.10
69590;BMP180;56792;50.644;17.984;2023-05-10T12:26:33;99705.40;;;23.00
69590;BMP180;56792;50.644;17.984;2023-05-10T12:29:17;99701.20;;;23.10
69590;BMP180;56792;50.644;17.984;2023-05-10T12:31:53;99697.40;;;25.08
69590;BMP180;56792;50.644;17.984;2023-05-10T12:34:31;99696.80;;;27.80
69590;BMP180;56792;50.644;17.984;2023-05-10T12:37:01;99700.00;;;28.26
69590;BMP180;56792;50.644;17.984;2023-05-10T12:39:40;99708.00;;;27.80
69590;BMP180;56792;50.644;17.984;2023-05-10T12:42:09;99700.00;;;26.72
69590;BMP180;56792;50.644;17.984;2023-05-10T12:44:38;99698.40;;;26.16
69590;BMP180;56792;50.644;17.984;2023-05-10T12:47:06;99692.20;;;26.50
69590;BMP180;56792;50.644;17.984;2023-05-10T12:49:34;99692.40;;;28.20
69590;BMP180;56792;50.644;17.984;2023-05-10T12:52:03;99697.00;;;30.72
69590;BMP180;56792;50.644;17.984;2023-05-10T12:54:31;99695.40;;;32.56
69590;BMP180;56792;50.644;17.984;2023-05-10T12:56:59;99692.20;;;34.22
69590;BMP180;56792;50.644;17.984;2023-05-10T12:59:27;99697.80;;;35.42
69590;BMP180;56792;50.644;17.984;2023-05-10T13:01:56;99691.60;;;36.36
69590;BMP180;56792;50.644;17.984;2023-05-10T13:04:24;99685.60;;;37.04
69590;BMP180;56792;50.644;17.984;2023-05-10T13:06:54;99684.60;;;37.78
69590;BMP180;56792;50.644;17.984;2023-05-10T13:09:26;99699.00;;;37.90
69590;BMP180;56792;50.644;17.984;2023-05-10T13:11:54;99696.20;;;36.38
69590;BMP180;56792;50.644;17.984;2023-05-10T13:14:23;99691.20;;;34.30
69590;BMP180;56792;50.644;17.984;2023-05-10T13:16:51;99690.40;;;32.60
69590;BMP180;56792;50.644;17.984;2023-05-10T13:19:19;99681.20;;;31.14
69590;BMP180;56792;50.644;17.984;2023-05-10T13:21:48;99680.40;;;31.10
69590;BMP180;56792;50.644;17.984;2023-05-10T13:24:16;99681.60;;;30.20
69590;BMP180;56792;50.644;17.984;2023-05-10T13:26:45;99674.00;;;29.80
69590;BMP180;56792;50.644;17.984;2023-05-10T13:29:13;99673.00;;;29.50
69590;BMP180;56792;50.644;17.984;2023-05-10T13:31:41;99677.20;;;28.74
69590;BMP180;56792;50.644;17.984;2023-05-10T13:34:09;99668.00;;;28.08
69590;BMP180;56792;50.644;17.984;2023-05-10T13:36:38;99664.80;;;27.66
69590;BMP180;56792;50.644;17.984;2023-05-10T13:39:06;99666.80;;;27.18
69590;BMP180;56792;50.644;17.984;2023-05-10T13:41:35;99662.20;;;26.60
69590;BMP180;56792;50.644;17.984;2023-05-10T13:44:04;99657.80;;;26.20
69590;BMP180;56792;50.644;17.984;2023-05-10T13:46:32;99651.00;;;25.80
69590;BMP180;56792;50.644;17.984;2023-05-10T13:49:01;99646.40;;;25.60
69590;BMP180;56792;50.644;17.984;2023-05-10T13:51:29;99647.20;;;25.48
69590;BMP180;56792;50.644;17.984;2023-05-10T13:53:59;99651.40;;;24.90
69590;BMP180;56792;50.644;17.984;2023-05-10T13:56:27;99643.40;;;24.30
69590;BMP180;56792;50.644;17.984;2023-05-10T13:58:56;99643.80;;;24.06
69590;BMP180;56792;50.644;17.984;2023-05-10T14:01:25;99640.20;;;23.90
69590;BMP180;56792;50.644;17.984;2023-05-10T14:03:53;99632.40;;;24.00
69590;BMP180;56792;50.644;17.984;2023-05-10T14:06:21;99633.00;;;24.00
69590;BMP180;56792;50.644;17.984;2023-05-10T14:08:50;99628.80;;;24.10
69590;BMP180;56792;50.644;17.984;2023-05-10T14:11:18;99634.00;;;24.10
69590;BMP180;56792;50.644;17.984;2023-05-10T14:13:47;99631.00;;;24.00
69590;BMP180;56792;50.644;17.984;2023-05-10T14:16:15;99629.00;;;24.00
69590;BMP180;56792;50.644;17.984;2023-05-10T14:18:43;99624.40;;;23.90
69590;BMP180;56792;50.644;17.984;2023-05-10T14:21:12;99630.40;;;23.80
69590;BMP180;56792;50.644;17.984;2023-05-10T14:23:40;99626.80;;;23.58